Terminal Aerodrome Forecast
Issued by NWS

Home | Current Version | Previous Version | Text Only | Print | Product List | Glossary Off
Versions: 1 2 3 4 5 6 7 8 9 10 11 12 13 14 15 16 17 18 19 20 21 22 23 24 25 26 27

000
FTUS43 KDLH 242100 AAC
TAFBRD
TAF AMD
KBRD 242113Z 2421/2518 VRB03KT 2SM -SNRA BR SCT004 OVC017
      TEMPO 2421/2423 1/2SM SN BKN004 OVC010
     FM242300 VRB04KT 6SM -RASN BR OVC010
     FM250600 19002KT 3SM BR OVC015
     FM250900 11003KT 3SM BR OVC020
     FM251200 33012KT P6SM VCSH OVC030=

USA.gov is the U.S. government's official web portal to all federal, state and local government web resources and services.